createdAt,value
2022-11-19T00:00:12.701Z,9.07
2022-11-19T00:02:41.454Z,8.70
2022-11-19T00:05:10.370Z,9.13
2022-11-19T00:07:39.204Z,8.47
2022-11-19T00:10:08.757Z,9.50
2022-11-19T00:13:00.422Z,8.73
2022-11-19T00:15:30.807Z,8.80
2022-11-19T00:18:00.606Z,8.30
2022-11-19T00:20:30.294Z,8.70
2022-11-19T00:22:59.372Z,8.80
2022-11-19T00:25:31.123Z,8.23
2022-11-19T00:28:00.638Z,8.60
2022-11-19T00:30:47.511Z,8.07
2022-11-19T00:33:17.372Z,8.07
2022-11-19T00:35:46.094Z,8.93
2022-11-19T00:38:14.759Z,8.43
2022-11-19T00:40:44.350Z,8.60
2022-11-19T00:43:30.724Z,9.37
2022-11-19T00:46:00.841Z,8.57
2022-11-19T00:48:29.645Z,8.93
2022-11-19T00:50:58.418Z,8.87
2022-11-19T00:53:27.554Z,9.70
2022-11-19T00:55:56.397Z,12.50
2022-11-19T00:58:25.174Z,11.63
2022-11-19T01:00:53.936Z,9.73
2022-11-19T01:03:25.343Z,8.70
2022-11-19T01:05:54.532Z,8.43
2022-11-19T01:08:23.824Z,8.70
2022-11-19T01:10:52.630Z,8.67
2022-11-19T01:13:36.888Z,8.97
2022-11-19T01:16:09.232Z,9.03
2022-11-19T01:18:42.377Z,8.03
2022-11-19T01:21:13.456Z,8.57
2022-11-19T01:23:44.648Z,8.70
2022-11-19T01:26:14.859Z,8.80
2022-11-19T01:28:44.547Z,8.47
2022-11-19T01:31:16.511Z,8.33
2022-11-19T01:33:47.052Z,8.50
2022-11-19T01:36:18.509Z,8.30
2022-11-19T01:38:50.911Z,8.47
2022-11-19T01:41:20.709Z,8.70
2022-11-19T01:43:53.036Z,8.57
2022-11-19T01:46:24.834Z,8.37
2022-11-19T01:49:00.098Z,8.20
2022-11-19T01:51:38.306Z,8.07
2022-11-19T01:54:13.880Z,7.80
2022-11-19T01:56:42.869Z,8.10
2022-11-19T01:59:19.481Z,8.60
2022-11-19T02:01:48.619Z,8.60
2022-11-19T02:04:21.776Z,8.50
2022-11-19T02:06:50.661Z,8.47
2022-11-19T02:09:20.493Z,8.47
2022-11-19T02:12:18.062Z,8.57
2022-11-19T02:15:13.697Z,9.00
2022-11-19T02:18:13.261Z,8.67
2022-11-19T02:21:20.471Z,8.83
2022-11-19T02:24:39.071Z,8.10
2022-11-19T02:27:52.644Z,9.30
2022-11-19T02:30:22.863Z,8.70
2022-11-19T02:33:07.919Z,8.67
2022-11-19T02:35:51.410Z,8.80
2022-11-19T02:38:34.896Z,8.93
2022-11-19T02:41:28.520Z,8.70
2022-11-19T02:44:21.720Z,8.50
2022-11-19T02:46:55.191Z,8.53
2022-11-19T02:49:31.745Z,8.03
2022-11-19T02:52:01.748Z,9.00
2022-11-19T02:54:30.565Z,8.17
2022-11-19T02:56:59.959Z,8.83
2022-11-19T02:59:56.138Z,8.07
2022-11-19T03:02:49.500Z,8.00
2022-11-19T03:05:26.791Z,7.67
2022-11-19T03:07:55.717Z,7.73
2022-11-19T03:10:31.667Z,8.23
2022-11-19T03:13:29.896Z,7.47
2022-11-19T03:16:17.297Z,7.87
2022-11-19T03:18:56.565Z,7.57
2022-11-19T03:21:34.789Z,7.87
2022-11-19T03:24:12.803Z,7.47
2022-11-19T03:26:48.268Z,7.60
2022-11-19T03:29:18.416Z,7.50
2022-11-19T03:31:54.682Z,7.53
2022-11-19T03:34:30.082Z,7.80
2022-11-19T03:37:02.973Z,7.87
2022-11-19T03:39:33.214Z,7.60
2022-11-19T03:42:02.444Z,7.27
2022-11-19T03:44:40.104Z,7.70
2022-11-19T03:47:14.919Z,8.10
2022-11-19T03:49:52.622Z,8.20
2022-11-19T03:52:22.886Z,8.13
2022-11-19T03:54:51.864Z,7.37
2022-11-19T03:57:24.974Z,7.60
2022-11-19T03:59:53.663Z,7.50
2022-11-19T04:02:22.751Z,7.87
2022-11-19T04:04:52.848Z,7.40
2022-11-19T04:07:24.380Z,8.07
2022-11-19T04:09:53.097Z,8.37
2022-11-19T04:12:24.606Z,8.00
2022-11-19T04:14:54.183Z,7.77
2022-11-19T04:17:22.973Z,7.53
2022-11-19T04:19:53.164Z,8.00
2022-11-19T04:22:21.916Z,7.87
2022-11-19T04:24:50.564Z,7.43
2022-11-19T04:27:19.259Z,7.67
2022-11-19T04:29:48.087Z,7.43
2022-11-19T04:32:17.283Z,7.33
2022-11-19T04:34:46.243Z,7.10
2022-11-19T04:37:16.407Z,7.70
2022-11-19T04:39:45.344Z,7.97
2022-11-19T04:42:14.074Z,7.50
2022-11-19T04:44:42.793Z,7.43
2022-11-19T04:47:11.670Z,7.70
2022-11-19T04:49:40.366Z,7.70
2022-11-19T04:52:09.080Z,7.53
2022-11-19T04:54:39.364Z,7.50
2022-11-19T04:57:08.101Z,7.40
2022-11-19T04:59:36.835Z,8.20
2022-11-19T05:02:05.610Z,7.63
2022-11-19T05:04:34.500Z,7.63
2022-11-19T05:07:04.412Z,7.77
2022-11-19T05:09:33.480Z,7.80
2022-11-19T05:12:03.626Z,7.57
2022-11-19T05:14:34.755Z,8.60
2022-11-19T05:17:03.489Z,7.63
2022-11-19T05:19:32.613Z,7.93
2022-11-19T05:22:01.985Z,7.33
2022-11-19T05:24:31.008Z,8.17
2022-11-19T05:26:59.882Z,7.87
2022-11-19T05:29:31.137Z,7.63
2022-11-19T05:32:00.919Z,7.93
2022-11-19T05:34:29.717Z,7.73
2022-11-19T05:36:58.663Z,7.93
2022-11-19T05:39:27.871Z,7.67
2022-11-19T05:41:56.983Z,8.30
2022-11-19T05:44:26.634Z,7.80
2022-11-19T05:46:59.837Z,7.70
2022-11-19T05:49:28.672Z,7.00
2022-11-19T05:51:57.902Z,7.60
2022-11-19T05:54:26.863Z,7.80
2022-11-19T05:56:56.278Z,7.17
2022-11-19T05:59:26.085Z,7.73
2022-11-19T06:01:57.355Z,8.07
2022-11-19T06:04:26.452Z,8.47
2022-11-19T06:06:55.198Z,8.90
2022-11-19T06:09:24.517Z,9.70
2022-11-19T06:11:53.402Z,10.67
2022-11-19T06:14:24.878Z,10.67
2022-11-19T06:16:58.097Z,9.57
2022-11-19T06:19:28.119Z,10.30
2022-11-19T06:21:57.474Z,9.83
2022-11-19T06:24:26.575Z,16.90
2022-11-19T06:26:55.307Z,11.83
2022-11-19T06:29:24.270Z,8.33
2022-11-19T06:31:53.028Z,7.60
2022-11-19T06:34:23.447Z,8.33
2022-11-19T06:36:53.672Z,9.17
2022-11-19T06:39:22.783Z,7.90
2022-11-19T06:41:51.951Z,8.37
2022-11-19T06:44:20.606Z,8.20
2022-11-19T06:46:49.277Z,9.90
2022-11-19T06:49:20.272Z,7.97
2022-11-19T06:51:50.836Z,8.70
2022-11-19T06:54:19.591Z,8.60
2022-11-19T06:56:48.534Z,7.73
2022-11-19T06:59:17.805Z,8.40
2022-11-19T07:01:49.675Z,8.43
2022-11-19T07:04:18.764Z,8.03
2022-11-19T07:06:51.320Z,8.50
2022-11-19T07:09:20.292Z,8.23
2022-11-19T07:11:50.158Z,8.50
2022-11-19T07:14:19.260Z,10.63
2022-11-19T07:16:48.148Z,10.40
2022-11-19T07:19:17.577Z,9.40
2022-11-19T07:21:46.665Z,7.67
2022-11-19T07:24:18.885Z,8.53
2022-11-19T07:26:47.681Z,9.43
2022-11-19T07:29:17.922Z,9.63
2022-11-19T07:31:50.514Z,8.97
2022-11-19T07:34:19.894Z,8.50
2022-11-19T07:36:49.474Z,8.43
2022-11-19T07:39:20.102Z,8.90
2022-11-19T07:42:06.868Z,9.77
2022-11-19T07:44:35.792Z,13.03
2022-11-19T07:47:05.451Z,16.47
2022-11-19T07:49:34.485Z,12.77
2022-11-19T07:52:03.397Z,9.97
2022-11-19T07:54:33.904Z,10.33
2022-11-19T07:57:02.762Z,12.03
2022-11-19T07:59:33.163Z,15.10
2022-11-19T08:02:02.234Z,12.83
2022-11-19T08:04:32.042Z,9.80
2022-11-19T08:07:03.382Z,11.40
2022-11-19T08:09:34.314Z,10.70
2022-11-19T08:12:03.396Z,10.47
2022-11-19T08:14:32.577Z,10.63
2022-11-19T08:17:21.148Z,10.03
2022-11-19T08:19:50.633Z,9.27
2022-11-19T08:22:20.863Z,10.50
2022-11-19T08:24:51.180Z,10.90
2022-11-19T08:27:20.118Z,11.53
2022-11-19T08:29:49.702Z,11.43
2022-11-19T08:32:19.017Z,11.67
2022-11-19T08:34:50.775Z,10.23
2022-11-19T08:37:19.583Z,11.03
2022-11-19T08:39:48.384Z,11.97
2022-11-19T08:42:38.517Z,12.07
2022-11-19T08:45:10.379Z,12.50
2022-11-19T08:47:41.052Z,11.63
2022-11-19T08:50:11.503Z,18.97
2022-11-19T08:52:40.422Z,17.27
2022-11-19T08:55:15.538Z,16.83
2022-11-19T08:57:49.789Z,17.63
2022-11-19T09:00:21.471Z,19.33
2022-11-19T09:02:50.760Z,18.50
2022-11-19T09:05:19.882Z,16.90
2022-11-19T09:07:49.211Z,15.97
2022-11-19T09:10:19.349Z,14.03
2022-11-19T09:12:50.559Z,14.17
2022-11-19T09:15:19.689Z,13.57
2022-11-19T09:17:48.739Z,13.17
2022-11-19T09:20:20.318Z,13.50
2022-11-19T09:22:52.615Z,13.87
2022-11-19T09:25:22.376Z,13.93
2022-11-19T09:27:56.120Z,15.00
2022-11-19T09:30:26.165Z,13.90
2022-11-19T09:32:56.229Z,13.60
2022-11-19T09:35:26.297Z,14.03
2022-11-19T09:37:55.638Z,14.03
2022-11-19T09:40:25.444Z,14.27
2022-11-19T09:43:14.990Z,13.57
2022-11-19T09:46:02.195Z,13.27
2022-11-19T09:48:37.097Z,13.83
2022-11-19T09:51:12.464Z,12.87
2022-11-19T09:53:50.927Z,13.20
2022-11-19T09:56:31.360Z,12.57
2022-11-19T09:59:08.742Z,12.77
2022-11-19T10:01:39.841Z,12.67
2022-11-19T10:04:13.691Z,12.17
2022-11-19T10:07:01.684Z,11.67
2022-11-19T10:10:00.135Z,10.83
2022-11-19T10:12:57.854Z,11.30
2022-11-19T10:15:43.109Z,9.87
2022-11-19T10:18:28.608Z,9.27
2022-11-19T10:21:08.577Z,8.77
2022-11-19T10:23:51.469Z,8.90
2022-11-19T10:26:28.057Z,7.83
2022-11-19T10:28:59.596Z,6.27
2022-11-19T10:31:40.543Z,7.50
2022-11-19T10:34:19.315Z,6.57
2022-11-19T10:36:57.892Z,6.40
2022-11-19T10:39:36.929Z,5.40
2022-11-19T10:42:20.923Z,6.07
2022-11-19T10:44:57.807Z,5.70
2022-11-19T10:47:39.980Z,5.80
2022-11-19T10:50:17.744Z,5.47
2022-11-19T10:52:53.137Z,5.20
2022-11-19T10:55:29.454Z,5.00
2022-11-19T10:58:12.656Z,5.43
2022-11-19T11:00:44.818Z,5.60
2022-11-19T11:03:24.624Z,5.87
2022-11-19T11:06:02.091Z,5.53
2022-11-19T11:08:31.583Z,6.00
2022-11-19T11:11:02.237Z,6.13
2022-11-19T11:13:56.569Z,5.47
2022-11-19T11:16:39.643Z,5.00
2022-11-19T11:19:16.319Z,4.60
2022-11-19T11:21:47.089Z,5.17
2022-11-19T11:24:16.287Z,5.43
2022-11-19T11:26:44.948Z,5.37
2022-11-19T11:29:28.692Z,5.43
2022-11-19T11:31:57.456Z,4.60
2022-11-19T11:34:43.917Z,3.63
2022-11-19T11:37:13.471Z,4.07
2022-11-19T11:39:44.337Z,4.07
2022-11-19T11:42:20.439Z,6.13
2022-11-19T11:44:55.883Z,4.13
2022-11-19T11:47:30.177Z,3.80
2022-11-19T11:50:10.112Z,4.30
2022-11-19T11:52:45.281Z,4.33
2022-11-19T11:55:18.117Z,3.97
2022-11-19T11:57:56.858Z,4.30
2022-11-19T12:00:38.896Z,4.00
2022-11-19T12:03:11.053Z,4.33
2022-11-19T12:05:56.019Z,4.10
2022-11-19T12:08:50.353Z,3.77
2022-11-19T12:11:27.685Z,4.67
2022-11-19T12:14:09.561Z,4.20
2022-11-19T12:17:01.198Z,4.00
2022-11-19T12:19:49.054Z,4.07
2022-11-19T12:22:33.965Z,4.00
2022-11-19T12:25:31.459Z,4.40
2022-11-19T12:28:27.561Z,3.97
2022-11-19T12:31:13.295Z,4.00
2022-11-19T12:34:04.542Z,4.27
2022-11-19T12:36:48.941Z,4.03
2022-11-19T12:39:41.601Z,4.07
2022-11-19T12:42:50.416Z,5.57
2022-11-19T12:45:37.435Z,4.70
2022-11-19T12:48:37.762Z,4.50
2022-11-19T12:51:16.005Z,5.00
2022-11-19T12:54:34.572Z,5.03
2022-11-19T12:57:34.982Z,5.07
2022-11-19T13:00:15.340Z,5.50
2022-11-19T13:03:07.827Z,5.40
2022-11-19T13:05:47.538Z,6.30
2022-11-19T13:08:24.178Z,6.03
2022-11-19T13:11:06.060Z,5.83
2022-11-19T13:13:41.600Z,6.23
2022-11-19T13:16:15.693Z,6.70
2022-11-19T13:18:49.608Z,5.90
2022-11-19T13:21:38.525Z,6.43
2022-11-19T13:24:20.176Z,7.10
2022-11-19T13:26:52.102Z,7.47
2022-11-19T13:29:44.143Z,8.33
2022-11-19T13:32:21.531Z,6.87
2022-11-19T13:35:05.339Z,7.20
2022-11-19T13:37:56.872Z,7.40
2022-11-19T13:40:35.609Z,8.33
2022-11-19T13:43:32.424Z,9.20
2022-11-19T13:46:18.070Z,8.03
2022-11-19T13:48:57.487Z,6.60
2022-11-19T13:51:34.632Z,8.93
2022-11-19T13:54:07.548Z,7.50
2022-11-19T13:56:43.960Z,8.13
2022-11-19T13:59:36.800Z,9.40
2022-11-19T14:03:02.756Z,8.27
2022-11-19T14:06:00.484Z,5.93
2022-11-19T14:08:52.825Z,5.67
2022-11-19T14:11:47.364Z,5.47
2022-11-19T14:14:55.298Z,5.43
2022-11-19T14:18:01.359Z,5.50
2022-11-19T14:20:58.030Z,5.30
2022-11-19T14:23:59.262Z,5.23
2022-11-19T14:27:17.292Z,4.40
2022-11-19T14:30:08.351Z,4.60
2022-11-19T14:32:46.995Z,4.63
2022-11-19T14:35:44.009Z,4.37
2022-11-19T14:38:37.689Z,6.30
2022-11-19T14:41:32.927Z,6.50
2022-11-19T14:44:14.783Z,5.97
2022-11-19T14:46:50.115Z,7.37
2022-11-19T14:49:38.992Z,8.00
2022-11-19T14:52:22.815Z,14.67
2022-11-19T14:54:58.296Z,14.00
2022-11-19T14:57:32.456Z,13.17
2022-11-19T15:00:05.232Z,14.57
2022-11-19T15:02:45.892Z,14.37
2022-11-19T15:05:22.615Z,9.90
2022-11-19T15:07:56.459Z,11.00
2022-11-19T15:10:48.428Z,8.20
2022-11-19T15:13:36.890Z,6.50
2022-11-19T15:16:14.349Z,6.63
2022-11-19T15:19:32.548Z,6.90
2022-11-19T15:22:45.996Z,8.00
2022-11-19T15:25:38.763Z,7.30
2022-11-19T15:28:33.511Z,6.60
2022-11-19T15:31:36.197Z,6.00
2022-11-19T15:34:49.340Z,5.53
2022-11-19T15:37:34.250Z,7.10
2022-11-19T15:40:04.365Z,6.30
2022-11-19T15:42:43.820Z,6.57
2022-11-19T15:45:21.058Z,7.23
2022-11-19T15:47:57.432Z,7.77
2022-11-19T15:50:29.138Z,7.50
2022-11-19T15:53:04.296Z,6.93
2022-11-19T15:55:33.650Z,8.63
2022-11-19T15:58:09.951Z,8.27
2022-11-19T16:00:47.457Z,8.13
2022-11-19T16:03:17.979Z,9.07
2022-11-19T16:06:03.398Z,8.87
2022-11-19T16:08:33.950Z,9.77
2022-11-19T16:11:22.879Z,8.40
2022-11-19T16:14:10.362Z,10.13
2022-11-19T16:17:00.131Z,9.53
2022-11-19T16:19:31.526Z,10.13
2022-11-19T16:22:06.365Z,9.87
2022-11-19T16:24:52.936Z,9.90
2022-11-19T16:27:26.264Z,10.23
2022-11-19T16:29:56.535Z,11.10
2022-11-19T16:32:28.785Z,10.30
2022-11-19T16:35:12.802Z,11.27
2022-11-19T16:37:43.833Z,10.83
2022-11-19T16:40:18.338Z,10.93
2022-11-19T16:42:54.055Z,11.37
2022-11-19T16:45:28.390Z,11.10
2022-11-19T16:47:59.447Z,12.20
2022-11-19T16:50:32.748Z,11.87
2022-11-19T16:53:05.637Z,11.60
2022-11-19T16:55:50.921Z,11.33
2022-11-19T16:58:26.591Z,11.20
2022-11-19T17:00:59.647Z,11.63
2022-11-19T17:03:39.692Z,10.87
2022-11-19T17:06:21.106Z,10.70
2022-11-19T17:09:01.136Z,10.70
2022-11-19T17:12:10.183Z,12.00
2022-11-19T17:14:53.102Z,12.07
2022-11-19T17:17:40.702Z,14.90
2022-11-19T17:20:49.840Z,12.77
2022-11-19T17:23:21.880Z,12.53
2022-11-19T17:25:55.664Z,12.40
2022-11-19T17:28:38.225Z,13.17
2022-11-19T17:31:16.585Z,13.73
2022-11-19T17:33:54.502Z,14.57
2022-11-19T17:36:25.935Z,15.97
2022-11-19T17:38:55.582Z,12.67
2022-11-19T17:41:44.238Z,13.70
2022-11-19T17:44:35.753Z,14.60
2022-11-19T17:47:21.178Z,15.47
2022-11-19T17:49:51.322Z,15.37
2022-11-19T17:52:25.963Z,16.67
2022-11-19T17:54:58.248Z,15.10
2022-11-19T17:57:28.419Z,14.07
2022-11-19T17:59:57.208Z,13.20
2022-11-19T18:02:26.629Z,14.53
2022-11-19T18:04:56.221Z,14.97
2022-11-19T18:07:25.666Z,13.60
2022-11-19T18:09:54.725Z,13.83
2022-11-19T18:12:23.503Z,13.27
2022-11-19T18:14:56.743Z,13.73
2022-11-19T18:17:29.220Z,12.70
2022-11-19T18:19:58.005Z,14.03
2022-11-19T18:22:26.861Z,13.87
2022-11-19T18:24:57.054Z,15.27
2022-11-19T18:27:26.007Z,13.87
2022-11-19T18:29:56.264Z,14.27
2022-11-19T18:32:24.996Z,18.70
2022-11-19T18:34:57.929Z,17.87
2022-11-19T18:37:30.137Z,16.03
2022-11-19T18:39:59.223Z,17.17
2022-11-19T18:42:28.500Z,15.23
2022-11-19T18:44:57.589Z,13.20
2022-11-19T18:47:26.503Z,13.03
2022-11-19T18:49:55.921Z,11.03
2022-11-19T18:52:24.626Z,10.90
2022-11-19T18:54:54.051Z,10.07
2022-11-19T18:57:22.746Z,10.43
2022-11-19T18:59:51.563Z,9.67
2022-11-19T19:02:21.961Z,10.70
2022-11-19T19:04:51.211Z,14.63
2022-11-19T19:07:20.278Z,11.83
2022-11-19T19:09:49.040Z,13.07
2022-11-19T19:12:19.102Z,10.60
2022-11-19T19:14:51.709Z,12.90
2022-11-19T19:17:22.502Z,12.60
2022-11-19T19:19:51.528Z,11.93
2022-11-19T19:22:20.786Z,11.53
2022-11-19T19:24:52.676Z,11.33
2022-11-19T19:27:25.680Z,10.33
2022-11-19T19:29:54.468Z,10.60
2022-11-19T19:32:24.690Z,10.80
2022-11-19T19:34:53.425Z,10.53
2022-11-19T19:37:22.139Z,11.37
2022-11-19T19:39:50.927Z,10.20
2022-11-19T19:42:19.783Z,9.37
2022-11-19T19:44:48.855Z,9.70
2022-11-19T19:47:17.734Z,9.30
2022-11-19T19:49:48.799Z,8.90
2022-11-19T19:52:17.694Z,9.23
2022-11-19T19:54:46.985Z,9.87
2022-11-19T19:57:16.849Z,10.97
2022-11-19T19:59:45.868Z,12.10
2022-11-19T20:02:16.079Z,12.73
2022-11-19T20:04:46.756Z,12.37
2022-11-19T20:07:16.252Z,12.77
2022-11-19T20:09:45.015Z,11.40
2022-11-19T20:12:14.357Z,10.87
2022-11-19T20:14:43.508Z,13.40
2022-11-19T20:20:27.692Z,11.20
2022-11-19T20:22:57.613Z,14.00
2022-11-19T20:25:26.747Z,11.43
2022-11-19T20:27:55.545Z,9.73
2022-11-19T20:30:24.316Z,12.83
2022-11-19T20:32:53.574Z,13.90
2022-11-19T20:35:23.912Z,14.60
2022-11-19T20:37:54.506Z,16.47
2022-11-19T20:40:24.478Z,16.37
2022-11-19T20:43:10.898Z,15.33
2022-11-19T20:45:40.103Z,15.70
2022-11-19T20:48:09.017Z,11.77
2022-11-19T20:50:38.148Z,12.17
2022-11-19T20:53:08.867Z,12.00
2022-11-19T20:55:53.122Z,13.80
2022-11-19T20:58:28.831Z,21.27
2022-11-19T21:01:03.157Z,19.63
2022-11-19T21:03:36.720Z,17.17
2022-11-19T21:06:09.833Z,16.70
2022-11-19T21:08:40.254Z,15.87
2022-11-19T21:11:16.524Z,13.63
2022-11-19T21:13:46.903Z,14.30
2022-11-19T21:16:19.398Z,13.37
2022-11-19T21:18:51.449Z,12.60
2022-11-19T21:21:24.451Z,13.33
2022-11-19T21:23:56.155Z,13.00
2022-11-19T21:26:27.314Z,12.20
2022-11-19T21:28:58.407Z,13.43
2022-11-19T21:31:38.720Z,11.73
2022-11-19T21:34:09.898Z,12.30
2022-11-19T21:36:40.244Z,12.20
2022-11-19T21:39:12.420Z,12.83
2022-11-19T21:41:41.523Z,12.10
2022-11-19T21:44:11.939Z,12.80
2022-11-19T21:46:45.261Z,13.03
2022-11-19T21:49:14.509Z,12.70
2022-11-19T21:51:43.628Z,11.83
2022-11-19T21:54:13.937Z,12.90
2022-11-19T21:56:43.469Z,13.00
2022-11-19T21:59:12.260Z,12.63
2022-11-19T22:01:40.947Z,12.40
2022-11-19T22:04:09.751Z,13.40
2022-11-19T22:06:38.454Z,13.87
2022-11-19T22:09:07.194Z,15.00
2022-11-19T22:11:37.394Z,15.03
2022-11-19T22:14:09.587Z,14.40
2022-11-19T22:16:40.934Z,13.37
2022-11-19T22:19:24.662Z,12.67
2022-11-19T22:21:53.539Z,12.37
2022-11-19T22:24:22.288Z,12.27
2022-11-19T22:26:52.681Z,14.00
2022-11-19T22:29:21.733Z,14.93
2022-11-19T22:31:50.533Z,15.23
2022-11-19T22:34:19.268Z,15.23
2022-11-19T22:36:48.130Z,15.57
2022-11-19T22:39:18.571Z,15.73
2022-11-19T22:41:47.450Z,15.73
2022-11-19T22:44:17.673Z,15.40
2022-11-19T22:46:47.176Z,15.03
2022-11-19T22:49:16.035Z,15.53
2022-11-19T22:51:44.780Z,15.87
2022-11-19T22:54:15.344Z,14.50
2022-11-19T22:56:44.294Z,15.30
2022-11-19T22:59:13.594Z,14.77
2022-11-19T23:01:43.717Z,15.03
2022-11-19T23:04:16.273Z,14.47
2022-11-19T23:06:45.320Z,14.40
2022-11-19T23:09:14.036Z,14.50
2022-11-19T23:12:00.279Z,13.80
2022-11-19T23:14:30.068Z,13.40
2022-11-19T23:17:00.305Z,13.00
2022-11-19T23:19:29.159Z,13.23
2022-11-19T23:21:57.846Z,12.70
2022-11-19T23:24:26.628Z,12.33
2022-11-19T23:26:55.472Z,11.50
2022-11-19T23:29:24.211Z,11.60
2022-11-19T23:31:52.983Z,10.67
2022-11-19T23:34:23.098Z,11.00
2022-11-19T23:36:51.874Z,10.70
2022-11-19T23:39:20.934Z,10.50
2022-11-19T23:41:50.003Z,10.10
2022-11-19T23:44:18.822Z,9.77
2022-11-19T23:46:47.634Z,9.53
2022-11-19T23:49:16.336Z,10.23
2022-11-19T23:51:46.620Z,9.70
2022-11-19T23:54:16.311Z,9.33
2022-11-19T23:56:46.731Z,9.83
2022-11-19T23:59:15.503Z,9.47
